createdAt,value
2019-02-07T00:01:27.582Z,98.65
2019-02-07T00:04:32.963Z,98.85
2019-02-07T00:07:38.177Z,99.26
2019-02-07T00:10:43.612Z,99.52
2019-02-07T00:13:48.695Z,99.59
2019-02-07T00:16:53.884Z,99.71
2019-02-07T00:19:59.117Z,99.43
2019-02-07T00:23:04.650Z,99.18
2019-02-07T00:26:10.249Z,99.08
2019-02-07T00:29:15.663Z,99.01
2019-02-07T00:32:20.919Z,98.74
2019-02-07T00:35:26.306Z,98.55
2019-02-07T00:38:31.445Z,98.56
2019-02-07T00:41:36.571Z,98.62
2019-02-07T00:44:50.543Z,98.78
2019-02-07T00:47:49.267Z,98.41
2019-02-07T00:50:54.325Z,98.23
2019-02-07T00:53:59.468Z,97.96
2019-02-07T00:57:04.662Z,97.97
2019-02-07T01:00:21.348Z,98.30
2019-02-07T01:03:26.430Z,97.88
2019-02-07T01:06:31.629Z,97.68
2019-02-07T01:09:36.761Z,97.71
2019-02-07T01:12:42.007Z,97.93
2019-02-07T01:15:47.245Z,97.53
2019-02-07T01:18:52.434Z,97.00
2019-02-07T01:21:57.560Z,96.44
2019-02-07T01:25:02.716Z,96.48
2019-02-07T01:28:08.194Z,96.68
2019-02-07T01:31:13.314Z,96.42
2019-02-07T01:34:18.429Z,96.15
2019-02-07T01:37:23.741Z,96.15
2019-02-07T01:40:28.906Z,96.52
2019-02-07T01:43:33.994Z,96.83
2019-02-07T01:46:39.099Z,96.70
2019-02-07T01:49:44.205Z,96.50
2019-02-07T01:52:49.364Z,96.53
2019-02-07T01:55:55.671Z,96.31
2019-02-07T01:59:00.745Z,96.02
2019-02-07T02:02:05.933Z,95.59
2019-02-07T02:05:12.009Z,95.63
2019-02-07T02:08:18.122Z,95.58
2019-02-07T02:11:23.237Z,95.74
2019-02-07T02:14:28.496Z,95.79
2019-02-07T02:17:33.919Z,95.89
2019-02-07T02:20:39.066Z,96.04
2019-02-07T02:23:44.169Z,96.32
2019-02-07T02:26:49.304Z,96.49
2019-02-07T02:29:54.508Z,96.25
2019-02-07T02:32:59.807Z,96.35
2019-02-07T02:36:04.957Z,96.40
2019-02-07T02:39:10.593Z,96.38
2019-02-07T02:42:15.684Z,96.19
2019-02-07T02:45:21.022Z,96.08
2019-02-07T02:48:26.209Z,96.05
2019-02-07T02:51:31.310Z,96.09
2019-02-07T02:54:42.829Z,95.63
2019-02-07T02:57:48.312Z,95.85
2019-02-07T03:01:21.768Z,96.03
2019-02-07T03:04:37.688Z,95.96
2019-02-07T03:08:10.826Z,95.82
2019-02-07T03:11:44.477Z,95.56
2019-02-07T03:15:07.317Z,95.38
2019-02-07T03:18:30.510Z,95.61
2019-02-07T03:21:45.799Z,95.52
2019-02-07T03:25:08.723Z,95.44
2019-02-07T03:28:31.714Z,95.25
2019-02-07T03:31:48.957Z,95.23
2019-02-07T03:35:12.073Z,95.34
2019-02-07T03:38:35.052Z,95.25
2019-02-07T03:41:59.018Z,95.25
2019-02-07T03:45:22.456Z,95.45
2019-02-07T03:48:46.604Z,95.42
2019-02-07T03:52:10.672Z,95.64
2019-02-07T03:55:29.007Z,95.64
2019-02-07T03:59:05.454Z,95.50
2019-02-07T04:02:32.861Z,95.51
2019-02-07T04:05:55.888Z,95.68
2019-02-07T04:09:19.989Z,95.87
2019-02-07T04:12:42.883Z,95.62
2019-02-07T04:15:59.182Z,95.21
2019-02-07T04:19:17.959Z,94.59
2019-02-07T04:22:48.812Z,94.33
2019-02-07T04:26:11.735Z,94.28
2019-02-07T04:29:51.009Z,94.31
2019-02-07T04:33:24.200Z,94.27
2019-02-07T04:36:52.856Z,94.17
2019-02-07T04:40:12.977Z,94.12
2019-02-07T04:43:37.525Z,94.30
2019-02-07T04:47:20.073Z,94.46
2019-02-07T04:50:42.536Z,94.50
2019-02-07T04:54:05.351Z,94.29
2019-02-07T04:57:26.562Z,94.05
2019-02-07T05:01:00.511Z,93.95
2019-02-07T05:04:36.713Z,93.86
2019-02-07T05:07:58.196Z,94.04
2019-02-07T05:11:16.648Z,93.91
2019-02-07T05:14:44.317Z,93.83
2019-02-07T05:18:14.628Z,93.50
2019-02-07T05:21:39.285Z,93.42
2019-02-07T05:25:03.732Z,93.43
2019-02-07T05:28:31.325Z,93.03
2019-02-07T05:31:58.733Z,93.12
2019-02-07T05:35:22.661Z,93.92
2019-02-07T05:38:47.162Z,93.99
2019-02-07T05:42:11.278Z,94.09
2019-02-07T05:45:23.324Z,94.19
2019-02-07T05:48:43.985Z,94.25
2019-02-07T05:52:11.081Z,93.72
2019-02-07T05:55:30.042Z,93.69
2019-02-07T05:58:54.118Z,93.50
2019-02-07T06:02:18.180Z,93.20
2019-02-07T06:05:51.273Z,93.10
2019-02-07T06:09:09.765Z,93.27
2019-02-07T06:12:39.808Z,92.98
2019-02-07T06:16:02.629Z,92.74
2019-02-07T06:19:17.113Z,92.73
2019-02-07T06:22:38.398Z,92.31
2019-02-07T06:26:01.324Z,92.12
2019-02-07T06:29:26.314Z,90.90
2019-02-07T06:33:03.179Z,90.38
2019-02-07T06:36:27.203Z,90.09
2019-02-07T06:39:49.811Z,90.11
2019-02-07T06:43:13.880Z,89.34
2019-02-07T06:46:37.015Z,89.03
2019-02-07T06:50:07.604Z,89.08
2019-02-07T06:53:30.510Z,89.02
2019-02-07T06:57:10.118Z,88.81
2019-02-07T07:00:28.849Z,88.48
2019-02-07T07:03:49.330Z,87.67
2019-02-07T07:07:12.799Z,87.90
2019-02-07T07:10:36.089Z,88.31
2019-02-07T07:14:00.212Z,88.12
2019-02-07T07:17:27.568Z,88.11
2019-02-07T07:20:43.076Z,87.85
2019-02-07T07:24:13.004Z,87.51
2019-02-07T07:27:49.208Z,87.02
2019-02-07T07:31:16.676Z,86.87
2019-02-07T07:34:47.322Z,87.65
2019-02-07T07:38:14.319Z,87.06
2019-02-07T07:41:44.575Z,86.16
2019-02-07T07:45:20.821Z,85.99
2019-02-07T07:48:34.810Z,86.96
2019-02-07T07:52:01.944Z,86.84
2019-02-07T07:55:32.634Z,87.10
2019-02-07T07:58:59.711Z,86.21
2019-02-07T08:02:31.744Z,86.35
2019-02-07T08:05:44.606Z,86.21
2019-02-07T08:08:58.130Z,85.81
2019-02-07T08:12:21.111Z,85.61
2019-02-07T08:16:03.392Z,84.50
2019-02-07T08:19:27.909Z,84.61
2019-02-07T08:22:53.374Z,84.74
2019-02-07T08:26:30.193Z,83.87
2019-02-07T08:29:57.388Z,83.88
2019-02-07T08:33:21.617Z,83.10
2019-02-07T08:36:39.489Z,82.88
2019-02-07T08:40:06.334Z,81.89
2019-02-07T08:43:29.554Z,82.37
2019-02-07T08:47:05.823Z,82.61
2019-02-07T08:50:31.067Z,82.64
2019-02-07T08:53:54.244Z,82.83
2019-02-07T08:57:24.793Z,82.58
2019-02-07T09:00:47.838Z,82.85
2019-02-07T09:04:18.316Z,82.69
2019-02-07T09:07:36.206Z,82.54
2019-02-07T09:11:03.212Z,82.51
2019-02-07T09:14:30.874Z,83.18
2019-02-07T09:17:44.072Z,84.09
2019-02-07T09:21:13.976Z,82.91
2019-02-07T09:24:36.887Z,84.00
2019-02-07T09:28:04.110Z,83.07
2019-02-07T09:31:36.155Z,84.95
2019-02-07T09:34:49.657Z,84.30
2019-02-07T09:38:19.956Z,84.55
2019-02-07T09:41:53.140Z,84.74
2019-02-07T09:45:16.035Z,85.10
2019-02-07T09:48:49.342Z,83.07
2019-02-07T09:52:16.407Z,83.53
2019-02-07T09:55:38.823Z,84.32
2019-02-07T09:59:03.435Z,83.20
2019-02-07T10:02:18.188Z,81.11
2019-02-07T10:05:30.464Z,82.54
2019-02-07T10:09:09.728Z,83.48
2019-02-07T10:12:39.790Z,83.55
2019-02-07T10:16:19.317Z,82.84
2019-02-07T10:19:42.042Z,82.69
2019-02-07T10:23:15.824Z,83.88
2019-02-07T10:26:46.018Z,82.31
2019-02-07T10:30:05.245Z,83.08
2019-02-07T10:33:22.060Z,84.44
2019-02-07T10:36:47.622Z,84.85
2019-02-07T10:40:24.004Z,83.50
2019-02-07T10:43:39.054Z,83.49
2019-02-07T10:47:01.846Z,84.74
2019-02-07T10:50:15.724Z,84.88
2019-02-07T10:53:58.244Z,86.05
2019-02-07T10:57:21.386Z,86.94
2019-02-07T11:00:57.955Z,86.78
2019-02-07T11:04:21.316Z,87.83
2019-02-07T11:07:44.560Z,88.30
2019-02-07T11:11:18.023Z,89.47
2019-02-07T11:14:51.383Z,89.39
2019-02-07T11:18:21.640Z,89.07
2019-02-07T11:21:44.268Z,88.82
2019-02-07T11:25:07.032Z,89.44
2019-02-07T11:28:29.680Z,89.72
2019-02-07T11:31:47.233Z,89.89
2019-02-07T11:35:14.149Z,89.91
2019-02-07T11:38:50.241Z,89.27
2019-02-07T11:42:14.417Z,88.85
2019-02-07T11:45:36.149Z,88.79
2019-02-07T11:48:52.389Z,88.72
2019-02-07T11:52:07.209Z,88.33
2019-02-07T11:55:34.246Z,88.15
2019-02-07T11:59:01.443Z,88.39
2019-02-07T12:02:25.554Z,89.29
2019-02-07T12:05:47.606Z,89.27
2019-02-07T12:09:12.473Z,88.74
2019-02-07T12:12:45.726Z,87.53
2019-02-07T12:16:15.626Z,87.89
2019-02-07T12:19:40.406Z,86.73
2019-02-07T12:23:04.092Z,87.80
2019-02-07T12:26:26.765Z,88.55
2019-02-07T12:29:42.057Z,87.22
2019-02-07T12:33:06.167Z,87.12
2019-02-07T12:36:30.369Z,86.97
2019-02-07T12:39:53.710Z,87.25
2019-02-07T12:43:31.405Z,87.67
2019-02-07T12:47:07.607Z,88.00
2019-02-07T12:50:29.413Z,87.11
2019-02-07T12:54:02.821Z,86.94
2019-02-07T12:57:26.913Z,86.66
2019-02-07T13:01:02.503Z,87.13
2019-02-07T13:04:49.558Z,86.96
2019-02-07T13:08:06.541Z,87.23
2019-02-07T13:11:30.714Z,87.78
2019-02-07T13:15:10.075Z,87.37
2019-02-07T13:18:46.217Z,88.35
2019-02-07T13:22:09.300Z,88.58
2019-02-07T13:25:29.725Z,87.82
2019-02-07T13:28:53.868Z,88.38
2019-02-07T13:32:23.920Z,88.80
2019-02-07T13:35:47.164Z,89.30
2019-02-07T13:39:16.105Z,89.34
2019-02-07T13:42:36.147Z,90.30
2019-02-07T13:45:59.156Z,89.94
2019-02-07T13:49:21.911Z,90.18
2019-02-07T13:52:44.629Z,89.15
2019-02-07T13:56:23.765Z,88.25
2019-02-07T13:59:56.848Z,89.32
2019-02-07T14:03:39.351Z,89.62
2019-02-07T14:07:02.128Z,88.60
2019-02-07T14:10:31.633Z,88.22
2019-02-07T14:14:08.162Z,89.11
2019-02-07T14:17:39.350Z,89.28
2019-02-07T14:21:02.095Z,88.69
2019-02-07T14:24:32.470Z,89.45
2019-02-07T14:27:51.428Z,89.32
2019-02-07T14:31:15.553Z,88.42
2019-02-07T14:34:38.384Z,88.61
2019-02-07T14:38:05.484Z,88.41
2019-02-07T14:41:37.115Z,88.10
2019-02-07T14:44:59.957Z,87.61
2019-02-07T14:48:05.485Z,87.82
2019-02-07T14:51:10.656Z,88.47
2019-02-07T14:54:15.784Z,87.71
2019-02-07T14:57:20.945Z,88.33
2019-02-07T15:00:27.735Z,88.39
2019-02-07T15:03:33.179Z,88.10
2019-02-07T15:06:38.382Z,88.51
2019-02-07T15:09:43.590Z,87.08
2019-02-07T15:12:49.415Z,87.85
2019-02-07T15:15:54.555Z,87.82
2019-02-07T15:19:00.128Z,88.18
2019-02-07T15:22:05.249Z,88.23
2019-02-07T15:25:10.887Z,87.20
2019-02-07T15:28:17.013Z,88.06
2019-02-07T15:31:22.201Z,88.38
2019-02-07T15:34:29.424Z,89.07
2019-02-07T15:37:34.348Z,89.59
2019-02-07T15:40:39.673Z,90.46
2019-02-07T15:43:44.814Z,90.62
2019-02-07T15:46:50.212Z,90.80
2019-02-07T15:49:57.023Z,90.13
2019-02-07T15:53:03.601Z,90.05
2019-02-07T15:56:08.770Z,90.56
2019-02-07T15:59:19.729Z,90.90
2019-02-07T16:02:35.923Z,90.97
2019-02-07T16:05:41.110Z,90.73
2019-02-07T16:08:46.320Z,91.16
2019-02-07T16:11:51.954Z,91.23
2019-02-07T16:14:57.180Z,91.53
2019-02-07T16:18:02.340Z,91.78
2019-02-07T16:21:07.469Z,91.62
2019-02-07T16:24:12.637Z,91.51
2019-02-07T16:27:17.786Z,91.48
2019-02-07T16:30:23.461Z,91.82
2019-02-07T16:33:28.615Z,92.22
2019-02-07T16:36:33.728Z,92.69
2019-02-07T16:39:38.907Z,92.72
2019-02-07T16:42:45.169Z,92.39
2019-02-07T16:45:50.349Z,92.40
2019-02-07T16:48:55.572Z,92.58
2019-02-07T16:52:01.129Z,92.54
2019-02-07T16:55:08.855Z,92.39
2019-02-07T16:58:14.015Z,92.45
2019-02-07T17:01:19.359Z,92.71
2019-02-07T17:04:25.695Z,92.65
2019-02-07T17:07:30.892Z,92.37
2019-02-07T17:10:36.647Z,92.86
2019-02-07T17:13:41.843Z,93.08
2019-02-07T17:16:46.994Z,93.04
2019-02-07T17:19:52.080Z,93.01
2019-02-07T17:22:57.764Z,92.95
2019-02-07T17:26:02.898Z,93.60
2019-02-07T17:29:08.095Z,94.22
2019-02-07T17:32:13.311Z,94.82
2019-02-07T17:35:18.861Z,95.04
2019-02-07T17:38:24.154Z,95.18
2019-02-07T17:41:29.663Z,95.45
2019-02-07T17:44:34.898Z,95.68
2019-02-07T17:47:40.136Z,96.12
2019-02-07T17:50:45.564Z,96.01
2019-02-07T17:53:50.724Z,95.57
2019-02-07T17:56:55.915Z,95.58
2019-02-07T18:00:01.224Z,95.73
2019-02-07T18:03:07.935Z,96.01
2019-02-07T18:06:13.472Z,96.14
2019-02-07T18:09:18.758Z,96.24
2019-02-07T18:12:23.884Z,96.27
2019-02-07T18:15:29.064Z,96.50
2019-02-07T18:18:34.257Z,96.59
2019-02-07T18:21:39.432Z,96.82
2019-02-07T18:24:44.508Z,96.87
2019-02-07T18:27:49.703Z,97.20
2019-02-07T18:30:54.984Z,97.27
2019-02-07T18:34:00.097Z,97.57
2019-02-07T18:37:05.440Z,97.76
2019-02-07T18:40:14.255Z,97.79
2019-02-07T18:43:19.495Z,97.81
2019-02-07T18:46:24.650Z,97.91
2019-02-07T18:49:29.954Z,97.93
2019-02-07T18:52:35.277Z,97.82
2019-02-07T18:55:40.467Z,97.75
2019-02-07T18:58:45.612Z,97.61
2019-02-07T19:01:50.858Z,97.48
2019-02-07T19:04:56.127Z,97.50
2019-02-07T19:08:01.387Z,97.64
2019-02-07T19:11:06.669Z,97.94
2019-02-07T19:14:11.895Z,98.11
2019-02-07T19:17:17.057Z,98.29
2019-02-07T19:20:22.242Z,98.33
2019-02-07T19:23:27.662Z,98.48
2019-02-07T19:26:35.670Z,98.87
2019-02-07T19:29:41.335Z,99.04
2019-02-07T19:32:46.593Z,98.99
2019-02-07T19:35:51.754Z,99.03
2019-02-07T19:38:57.382Z,99.05
2019-02-07T19:42:02.550Z,99.07
2019-02-07T19:45:08.799Z,99.26
2019-02-07T19:48:14.167Z,99.51
2019-02-07T19:51:19.415Z,99.82
2019-02-07T19:54:24.644Z,99.95
2019-02-07T19:57:29.812Z,100.00
2019-02-07T20:00:35.622Z,100.00
2019-02-07T20:03:40.941Z,100.00
2019-02-07T20:06:46.647Z,100.00
2019-02-07T20:09:51.867Z,100.00
2019-02-07T20:12:57.281Z,100.00
2019-02-07T20:16:02.556Z,100.00
2019-02-07T20:19:07.999Z,100.00
2019-02-07T20:22:20.286Z,100.00
2019-02-07T20:25:20.328Z,100.00
2019-02-07T20:28:25.759Z,100.00
2019-02-07T20:31:30.972Z,100.00
2019-02-07T20:34:36.238Z,100.00
2019-02-07T20:37:41.491Z,100.00
2019-02-07T20:40:46.774Z,100.00
2019-02-07T20:43:52.132Z,100.00
2019-02-07T20:46:57.308Z,100.00
2019-02-07T20:50:02.655Z,100.00
2019-02-07T20:53:10.494Z,100.00
2019-02-07T20:56:15.765Z,100.00
2019-02-07T20:59:21.014Z,100.00
2019-02-07T21:02:26.115Z,100.00
2019-02-07T21:05:32.409Z,100.00
2019-02-07T21:08:37.654Z,100.00
2019-02-07T21:11:42.815Z,100.00
2019-02-07T21:14:47.961Z,100.00
2019-02-07T21:17:53.075Z,100.00
2019-02-07T21:20:58.345Z,100.00
2019-02-07T21:24:03.567Z,100.00
2019-02-07T21:27:08.811Z,100.00
2019-02-07T21:30:17.223Z,100.00
2019-02-07T21:33:22.742Z,100.00
2019-02-07T21:36:27.879Z,100.00
2019-02-07T21:39:33.141Z,100.00
2019-02-07T21:42:38.570Z,100.00
2019-02-07T21:45:43.779Z,99.69
2019-02-07T21:48:48.877Z,99.26
2019-02-07T21:51:54.490Z,98.42
2019-02-07T21:54:59.675Z,97.86
2019-02-07T21:58:06.030Z,98.24
2019-02-07T22:01:11.610Z,98.54
2019-02-07T22:04:16.842Z,98.75
2019-02-07T22:07:22.460Z,99.07
2019-02-07T22:10:27.857Z,99.29
2019-02-07T22:13:32.962Z,99.51
2019-02-07T22:16:38.096Z,99.81
2019-02-07T22:19:43.393Z,99.60
2019-02-07T22:22:49.455Z,99.68
2019-02-07T22:25:54.906Z,99.53
2019-02-07T22:29:00.139Z,99.52
2019-02-07T22:32:05.394Z,99.57
2019-02-07T22:35:11.014Z,99.77
2019-02-07T22:38:16.113Z,99.60
2019-02-07T22:41:21.254Z,99.66
2019-02-07T22:44:26.414Z,99.97
2019-02-07T22:47:32.499Z,100.00
2019-02-07T22:50:38.099Z,100.00
2019-02-07T22:53:43.362Z,100.00
2019-02-07T22:56:48.474Z,100.00
2019-02-07T22:59:54.013Z,100.00
2019-02-07T23:02:59.329Z,100.00
2019-02-07T23:06:04.932Z,100.00
2019-02-07T23:09:13.877Z,100.00
2019-02-07T23:12:19.735Z,100.00
2019-02-07T23:15:24.993Z,100.00
2019-02-07T23:18:30.210Z,100.00
2019-02-07T23:21:35.419Z,99.99
2019-02-07T23:24:40.537Z,99.87
2019-02-07T23:27:45.748Z,99.98
2019-02-07T23:30:51.325Z,100.00
2019-02-07T23:33:56.503Z,100.00
2019-02-07T23:37:01.696Z,100.00
2019-02-07T23:40:08.062Z,100.00
2019-02-07T23:43:13.386Z,100.00
2019-02-07T23:46:19.729Z,100.00
2019-02-07T23:49:24.874Z,100.00
2019-02-07T23:52:29.978Z,100.00
2019-02-07T23:55:35.149Z,100.00
2019-02-07T23:58:40.343Z,100.00
